sensor_id;sensor_type;location;lat;lon;timestamp;temperature;humidity
47779;DHT22;33538;48.432;11.350;2023-03-07T00:00:17;2.80;94.20
47779;DHT22;33538;48.432;11.350;2023-03-07T00:02:43;2.80;94.30
47779;DHT22;33538;48.432;11.350;2023-03-07T00:05:10;2.70;94.30
47779;DHT22;33538;48.432;11.350;2023-03-07T00:07:37;2.80;94.50
47779;DHT22;33538;48.432;11.350;2023-03-07T00:10:04;2.80;94.60
47779;DHT22;33538;48.432;11.350;2023-03-07T00:12:31;2.80;94.20
47779;DHT22;33538;48.432;11.350;2023-03-07T00:14:58;2.80;93.90
47779;DHT22;33538;48.432;11.350;2023-03-07T00:17:26;2.80;93.70
47779;DHT22;33538;48.432;11.350;2023-03-07T00:19:53;2.80;93.40
47779;DHT22;33538;48.432;11.350;2023-03-07T00:22:19;2.80;93.40
47779;DHT22;33538;48.432;11.350;2023-03-07T00:24:46;2.80;93.20
47779;DHT22;33538;48.432;11.350;2023-03-07T00:27:13;2.90;93.10
47779;DHT22;33538;48.432;11.350;2023-03-07T00:29:40;2.90;93.00
47779;DHT22;33538;48.432;11.350;2023-03-07T00:32:07;2.90;92.90
47779;DHT22;33538;48.432;11.350;2023-03-07T00:34:35;2.90;92.90
47779;DHT22;33538;48.432;11.350;2023-03-07T00:37:02;2.80;93.00
47779;DHT22;33538;48.432;11.350;2023-03-07T00:39:30;2.90;93.30
47779;DHT22;33538;48.432;11.350;2023-03-07T00:41:56;2.80;93.40
47779;DHT22;33538;48.432;11.350;2023-03-07T00:44:23;2.80;93.50
47779;DHT22;33538;48.432;11.350;2023-03-07T00:46:50;2.80;93.50
47779;DHT22;33538;48.432;11.350;2023-03-07T00:49:17;2.80;93.40
47779;DHT22;33538;48.432;11.350;2023-03-07T00:51:45;2.80;93.30
47779;DHT22;33538;48.432;11.350;2023-03-07T00:54:12;2.80;93.40
47779;DHT22;33538;48.432;11.350;2023-03-07T00:56:39;2.80;93.20
47779;DHT22;33538;48.432;11.350;2023-03-07T00:59:06;2.80;93.10
47779;DHT22;33538;48.432;11.350;2023-03-07T01:01:34;2.80;93.40
47779;DHT22;33538;48.432;11.350;2023-03-07T01:04:00;2.80;93.20
47779;DHT22;33538;48.432;11.350;2023-03-07T01:06:29;2.80;93.10
47779;DHT22;33538;48.432;11.350;2023-03-07T01:08:59;2.80;93.10
47779;DHT22;33538;48.432;11.350;2023-03-07T01:11:27;2.80;93.00
47779;DHT22;33538;48.432;11.350;2023-03-07T01:13:55;2.70;93.20
47779;DHT22;33538;48.432;11.350;2023-03-07T01:16:23;2.80;93.10
47779;DHT22;33538;48.432;11.350;2023-03-07T01:18:53;2.80;93.40
47779;DHT22;33538;48.432;11.350;2023-03-07T01:21:22;2.80;93.30
47779;DHT22;33538;48.432;11.350;2023-03-07T01:23:49;2.80;93.00
47779;DHT22;33538;48.432;11.350;2023-03-07T01:26:19;2.90;93.00
47779;DHT22;33538;48.432;11.350;2023-03-07T01:28:46;2.80;92.90
47779;DHT22;33538;48.432;11.350;2023-03-07T01:31:13;2.80;93.00
47779;DHT22;33538;48.432;11.350;2023-03-07T01:33:40;2.80;92.90
47779;DHT22;33538;48.432;11.350;2023-03-07T01:36:15;2.80;92.90
47779;DHT22;33538;48.432;11.350;2023-03-07T01:38:42;2.80;93.00
47779;DHT22;33538;48.432;11.350;2023-03-07T01:41:09;2.80;92.90
47779;DHT22;33538;48.432;11.350;2023-03-07T01:43:37;2.80;93.10
47779;DHT22;33538;48.432;11.350;2023-03-07T01:49:11;2.90;92.60
47779;DHT22;33538;48.432;11.350;2023-03-07T01:51:41;2.90;92.50
47779;DHT22;33538;48.432;11.350;2023-03-07T01:54:11;2.90;92.60
47779;DHT22;33538;48.432;11.350;2023-03-07T01:56:39;2.90;92.50
47779;DHT22;33538;48.432;11.350;2023-03-07T01:59:07;2.90;92.50
47779;DHT22;33538;48.432;11.350;2023-03-07T02:01:35;2.90;92.60
47779;DHT22;33538;48.432;11.350;2023-03-07T02:04:08;2.80;92.70
47779;DHT22;33538;48.432;11.350;2023-03-07T02:06:37;2.80;92.70
47779;DHT22;33538;48.432;11.350;2023-03-07T02:09:06;2.80;92.80
47779;DHT22;33538;48.432;11.350;2023-03-07T02:11:34;2.80;92.90
47779;DHT22;33538;48.432;11.350;2023-03-07T02:14:01;2.80;93.00
47779;DHT22;33538;48.432;11.350;2023-03-07T02:16:30;2.80;93.00
47779;DHT22;33538;48.432;11.350;2023-03-07T02:18:57;2.80;93.10
47779;DHT22;33538;48.432;11.350;2023-03-07T02:21:30;2.80;93.10
47779;DHT22;33538;48.432;11.350;2023-03-07T02:24:04;2.80;93.10
47779;DHT22;33538;48.432;11.350;2023-03-07T02:26:44;2.80;93.10
47779;DHT22;33538;48.432;11.350;2023-03-07T02:29:12;2.80;93.00
47779;DHT22;33538;48.432;11.350;2023-03-07T02:31:40;2.80;93.00
47779;DHT22;33538;48.432;11.350;2023-03-07T02:34:17;2.80;92.90
47779;DHT22;33538;48.432;11.350;2023-03-07T02:36:44;2.80;92.80
47779;DHT22;33538;48.432;11.350;2023-03-07T02:39:12;2.80;92.90
47779;DHT22;33538;48.432;11.350;2023-03-07T02:41:39;2.80;92.90
47779;DHT22;33538;48.432;11.350;2023-03-07T02:44:07;2.80;92.80
47779;DHT22;33538;48.432;11.350;2023-03-07T02:46:34;2.80;92.90
47779;DHT22;33538;48.432;11.350;2023-03-07T02:49:01;2.90;92.90
47779;DHT22;33538;48.432;11.350;2023-03-07T02:51:27;2.90;92.90
47779;DHT22;33538;48.432;11.350;2023-03-07T02:53:54;2.80;92.80
47779;DHT22;33538;48.432;11.350;2023-03-07T02:56:21;2.90;92.90
47779;DHT22;33538;48.432;11.350;2023-03-07T02:58:47;2.90;92.80
47779;DHT22;33538;48.432;11.350;2023-03-07T03:01:15;2.90;92.80
47779;DHT22;33538;48.432;11.350;2023-03-07T03:03:42;2.90;92.70
47779;DHT22;33538;48.432;11.350;2023-03-07T03:06:09;2.90;92.60
47779;DHT22;33538;48.432;11.350;2023-03-07T03:08:36;2.90;92.60
47779;DHT22;33538;48.432;11.350;2023-03-07T03:11:03;2.90;92.60
47779;DHT22;33538;48.432;11.350;2023-03-07T03:13:29;2.90;92.60
47779;DHT22;33538;48.432;11.350;2023-03-07T03:15:57;2.90;92.60
47779;DHT22;33538;48.432;11.350;2023-03-07T03:18:27;2.90;92.50
47779;DHT22;33538;48.432;11.350;2023-03-07T03:20:54;2.90;92.60
47779;DHT22;33538;48.432;11.350;2023-03-07T03:23:20;2.90;92.60
47779;DHT22;33538;48.432;11.350;2023-03-07T03:25:56;2.90;92.50
47779;DHT22;33538;48.432;11.350;2023-03-07T03:28:23;2.90;92.40
47779;DHT22;33538;48.432;11.350;2023-03-07T03:30:56;2.90;92.30
47779;DHT22;33538;48.432;11.350;2023-03-07T03:33:25;2.90;92.20
47779;DHT22;33538;48.432;11.350;2023-03-07T03:35:52;2.90;92.30
47779;DHT22;33538;48.432;11.350;2023-03-07T03:38:19;2.90;92.20
47779;DHT22;33538;48.432;11.350;2023-03-07T03:40:46;2.90;92.10
47779;DHT22;33538;48.432;11.350;2023-03-07T03:43:13;2.90;92.20
47779;DHT22;33538;48.432;11.350;2023-03-07T03:45:40;2.90;92.10
47779;DHT22;33538;48.432;11.350;2023-03-07T03:48:07;2.90;92.00
47779;DHT22;33538;48.432;11.350;2023-03-07T03:50:35;2.90;92.00
47779;DHT22;33538;48.432;11.350;2023-03-07T03:53:02;2.90;92.00
47779;DHT22;33538;48.432;11.350;2023-03-07T03:55:28;2.80;91.90
47779;DHT22;33538;48.432;11.350;2023-03-07T03:57:55;2.90;91.90
47779;DHT22;33538;48.432;11.350;2023-03-07T04:00:22;2.80;91.90
47779;DHT22;33538;48.432;11.350;2023-03-07T04:02:49;2.80;91.90
47779;DHT22;33538;48.432;11.350;2023-03-07T04:05:16;2.80;91.90
47779;DHT22;33538;48.432;11.350;2023-03-07T04:07:44;2.80;91.80
47779;DHT22;33538;48.432;11.350;2023-03-07T04:10:11;2.80;91.80
47779;DHT22;33538;48.432;11.350;2023-03-07T04:12:38;2.80;91.80
47779;DHT22;33538;48.432;11.350;2023-03-07T04:15:05;2.80;91.80
47779;DHT22;33538;48.432;11.350;2023-03-07T04:17:33;2.80;91.80
47779;DHT22;33538;48.432;11.350;2023-03-07T04:20:00;2.80;91.80
47779;DHT22;33538;48.432;11.350;2023-03-07T04:22:27;2.70;91.70
47779;DHT22;33538;48.432;11.350;2023-03-07T04:24:55;2.70;91.70
47779;DHT22;33538;48.432;11.350;2023-03-07T04:27:22;2.70;91.60
47779;DHT22;33538;48.432;11.350;2023-03-07T04:29:48;2.70;91.60
47779;DHT22;33538;48.432;11.350;2023-03-07T04:32:15;2.70;91.60
47779;DHT22;33538;48.432;11.350;2023-03-07T04:34:42;2.70;91.50
47779;DHT22;33538;48.432;11.350;2023-03-07T04:37:09;2.70;91.50
47779;DHT22;33538;48.432;11.350;2023-03-07T04:39:35;2.70;91.40
47779;DHT22;33538;48.432;11.350;2023-03-07T04:42:04;2.70;91.50
47779;DHT22;33538;48.432;11.350;2023-03-07T04:44:31;2.70;91.40
47779;DHT22;33538;48.432;11.350;2023-03-07T04:46:57;2.70;91.40
47779;DHT22;33538;48.432;11.350;2023-03-07T04:49:24;2.70;91.40
47779;DHT22;33538;48.432;11.350;2023-03-07T04:51:51;2.70;91.30
47779;DHT22;33538;48.432;11.350;2023-03-07T04:54:18;2.60;91.40
47779;DHT22;33538;48.432;11.350;2023-03-07T04:56:44;2.60;91.40
47779;DHT22;33538;48.432;11.350;2023-03-07T04:59:12;2.60;91.40
47779;DHT22;33538;48.432;11.350;2023-03-07T05:01:39;2.60;91.40
47779;DHT22;33538;48.432;11.350;2023-03-07T05:04:06;2.70;91.40
47779;DHT22;33538;48.432;11.350;2023-03-07T05:06:33;2.60;91.30
47779;DHT22;33538;48.432;11.350;2023-03-07T05:08:59;2.70;91.30
47779;DHT22;33538;48.432;11.350;2023-03-07T05:11:26;2.60;91.30
47779;DHT22;33538;48.432;11.350;2023-03-07T05:13:53;2.60;91.40
47779;DHT22;33538;48.432;11.350;2023-03-07T05:16:21;2.60;91.30
47779;DHT22;33538;48.432;11.350;2023-03-07T05:18:48;2.60;91.20
47779;DHT22;33538;48.432;11.350;2023-03-07T05:21:14;2.60;91.30
47779;DHT22;33538;48.432;11.350;2023-03-07T05:23:41;2.60;91.30
47779;DHT22;33538;48.432;11.350;2023-03-07T05:26:08;2.60;91.20
47779;DHT22;33538;48.432;11.350;2023-03-07T05:28:35;2.60;91.20
47779;DHT22;33538;48.432;11.350;2023-03-07T05:31:01;2.70;91.20
47779;DHT22;33538;48.432;11.350;2023-03-07T05:33:30;2.70;91.20
47779;DHT22;33538;48.432;11.350;2023-03-07T05:35:58;2.70;91.10
47779;DHT22;33538;48.432;11.350;2023-03-07T05:38:25;2.70;91.10
47779;DHT22;33538;48.432;11.350;2023-03-07T05:40:52;2.60;91.10
47779;DHT22;33538;48.432;11.350;2023-03-07T05:43:18;2.70;91.00
47779;DHT22;33538;48.432;11.350;2023-03-07T05:45:45;2.60;91.00
47779;DHT22;33538;48.432;11.350;2023-03-07T05:48:13;2.70;91.00
47779;DHT22;33538;48.432;11.350;2023-03-07T05:50:41;2.70;91.00
47779;DHT22;33538;48.432;11.350;2023-03-07T05:53:08;2.60;90.90
47779;DHT22;33538;48.432;11.350;2023-03-07T05:55:34;2.70;90.90
47779;DHT22;33538;48.432;11.350;2023-03-07T05:58:01;2.70;90.90
47779;DHT22;33538;48.432;11.350;2023-03-07T06:00:28;2.70;90.80
47779;DHT22;33538;48.432;11.350;2023-03-07T06:02:55;2.70;90.80
47779;DHT22;33538;48.432;11.350;2023-03-07T06:05:22;2.70;90.70
47779;DHT22;33538;48.432;11.350;2023-03-07T06:07:52;2.70;90.70
47779;DHT22;33538;48.432;11.350;2023-03-07T06:10:19;2.70;90.70
47779;DHT22;33538;48.432;11.350;2023-03-07T06:12:48;2.70;90.60
47779;DHT22;33538;48.432;11.350;2023-03-07T06:15:15;2.70;90.50
47779;DHT22;33538;48.432;11.350;2023-03-07T06:17:42;2.70;90.50
47779;DHT22;33538;48.432;11.350;2023-03-07T06:20:10;2.70;90.50
47779;DHT22;33538;48.432;11.350;2023-03-07T06:22:37;2.70;90.50
47779;DHT22;33538;48.432;11.350;2023-03-07T06:25:08;2.70;90.50
47779;DHT22;33538;48.432;11.350;2023-03-07T06:27:35;2.70;90.40
47779;DHT22;33538;48.432;11.350;2023-03-07T06:30:04;2.70;90.40
47779;DHT22;33538;48.432;11.350;2023-03-07T06:32:31;2.70;90.40
47779;DHT22;33538;48.432;11.350;2023-03-07T06:34:58;2.70;90.30
47779;DHT22;33538;48.432;11.350;2023-03-07T06:37:25;2.70;90.40
47779;DHT22;33538;48.432;11.350;2023-03-07T06:39:52;2.70;90.30
47779;DHT22;33538;48.432;11.350;2023-03-07T06:42:21;2.70;90.30
47779;DHT22;33538;48.432;11.350;2023-03-07T06:44:47;2.70;90.20
47779;DHT22;33538;48.432;11.350;2023-03-07T06:47:14;2.70;90.20
47779;DHT22;33538;48.432;11.350;2023-03-07T06:49:41;2.70;90.10
47779;DHT22;33538;48.432;11.350;2023-03-07T06:52:07;2.70;90.10
47779;DHT22;33538;48.432;11.350;2023-03-07T06:54:34;2.80;90.10
47779;DHT22;33538;48.432;11.350;2023-03-07T06:57:01;2.80;90.00
47779;DHT22;33538;48.432;11.350;2023-03-07T06:59:29;2.70;90.00
47779;DHT22;33538;48.432;11.350;2023-03-07T07:01:56;2.80;90.00
47779;DHT22;33538;48.432;11.350;2023-03-07T07:04:23;2.80;90.00
47779;DHT22;33538;48.432;11.350;2023-03-07T07:06:49;2.80;90.00
47779;DHT22;33538;48.432;11.350;2023-03-07T07:09:16;2.80;90.00
47779;DHT22;33538;48.432;11.350;2023-03-07T07:11:43;2.80;90.40
47779;DHT22;33538;48.432;11.350;2023-03-07T07:14:10;2.80;90.00
47779;DHT22;33538;48.432;11.350;2023-03-07T07:16:38;2.80;89.70
47779;DHT22;33538;48.432;11.350;2023-03-07T07:19:05;2.80;89.70
47779;DHT22;33538;48.432;11.350;2023-03-07T07:21:32;2.90;89.80
47779;DHT22;33538;48.432;11.350;2023-03-07T07:23:58;2.90;89.80
47779;DHT22;33538;48.432;11.350;2023-03-07T07:26:25;2.90;89.70
47779;DHT22;33538;48.432;11.350;2023-03-07T07:28:52;2.90;89.60
47779;DHT22;33538;48.432;11.350;2023-03-07T07:31:19;2.90;89.50
47779;DHT22;33538;48.432;11.350;2023-03-07T07:33:47;2.90;89.40
47779;DHT22;33538;48.432;11.350;2023-03-07T07:36:14;2.90;89.40
47779;DHT22;33538;48.432;11.350;2023-03-07T07:38:41;3.00;89.40
47779;DHT22;33538;48.432;11.350;2023-03-07T07:41:07;3.00;89.30
47779;DHT22;33538;48.432;11.350;2023-03-07T07:43:34;3.00;89.20
47779;DHT22;33538;48.432;11.350;2023-03-07T07:46:02;3.00;89.20
47779;DHT22;33538;48.432;11.350;2023-03-07T07:48:29;3.00;89.30
47779;DHT22;33538;48.432;11.350;2023-03-07T07:51:01;3.00;89.20
47779;DHT22;33538;48.432;11.350;2023-03-07T07:53:28;3.00;89.20
47779;DHT22;33538;48.432;11.350;2023-03-07T07:55:54;3.00;89.20
47779;DHT22;33538;48.432;11.350;2023-03-07T07:58:21;3.10;89.10
47779;DHT22;33538;48.432;11.350;2023-03-07T08:00:48;3.10;89.00
47779;DHT22;33538;48.432;11.350;2023-03-07T08:03:15;3.10;89.00
47779;DHT22;33538;48.432;11.350;2023-03-07T08:05:48;3.10;89.00
47779;DHT22;33538;48.432;11.350;2023-03-07T08:08:16;3.10;89.00
47779;DHT22;33538;48.432;11.350;2023-03-07T08:10:45;3.10;88.90
47779;DHT22;33538;48.432;11.350;2023-03-07T08:13:13;3.10;89.10
47779;DHT22;33538;48.432;11.350;2023-03-07T08:15:40;3.10;88.90
47779;DHT22;33538;48.432;11.350;2023-03-07T08:18:07;3.10;88.90
47779;DHT22;33538;48.432;11.350;2023-03-07T08:20:35;3.20;88.90
47779;DHT22;33538;48.432;11.350;2023-03-07T08:23:02;3.20;89.00
47779;DHT22;33538;48.432;11.350;2023-03-07T08:25:30;3.20;89.00
47779;DHT22;33538;48.432;11.350;2023-03-07T08:27:57;3.20;89.10
47779;DHT22;33538;48.432;11.350;2023-03-07T08:30:26;3.20;89.20
47779;DHT22;33538;48.432;11.350;2023-03-07T08:32:54;3.20;89.30
47779;DHT22;33538;48.432;11.350;2023-03-07T08:35:22;3.20;89.30
47779;DHT22;33538;48.432;11.350;2023-03-07T08:37:52;3.20;89.40
47779;DHT22;33538;48.432;11.350;2023-03-07T08:40:20;3.20;89.40
47779;DHT22;33538;48.432;11.350;2023-03-07T08:42:48;3.20;89.50
47779;DHT22;33538;48.432;11.350;2023-03-07T08:45:15;3.20;89.60
47779;DHT22;33538;48.432;11.350;2023-03-07T08:47:42;3.20;89.70
47779;DHT22;33538;48.432;11.350;2023-03-07T08:50:10;3.30;89.80
47779;DHT22;33538;48.432;11.350;2023-03-07T08:52:36;3.30;89.90
47779;DHT22;33538;48.432;11.350;2023-03-07T08:55:04;3.30;90.00
47779;DHT22;33538;48.432;11.350;2023-03-07T08:57:31;3.30;90.00
47779;DHT22;33538;48.432;11.350;2023-03-07T08:59:59;3.30;90.00
47779;DHT22;33538;48.432;11.350;2023-03-07T09:02:26;3.30;90.10
47779;DHT22;33538;48.432;11.350;2023-03-07T09:04:53;3.30;90.10
47779;DHT22;33538;48.432;11.350;2023-03-07T09:07:19;3.40;90.10
47779;DHT22;33538;48.432;11.350;2023-03-07T09:09:46;3.40;90.10
47779;DHT22;33538;48.432;11.350;2023-03-07T09:12:13;3.40;90.10
47779;DHT22;33538;48.432;11.350;2023-03-07T09:14:40;3.40;90.10
47779;DHT22;33538;48.432;11.350;2023-03-07T09:17:08;3.40;90.10
47779;DHT22;33538;48.432;11.350;2023-03-07T09:19:35;3.40;90.10
47779;DHT22;33538;48.432;11.350;2023-03-07T09:22:02;3.40;90.20
47779;DHT22;33538;48.432;11.350;2023-03-07T09:24:29;3.40;90.20
47779;DHT22;33538;48.432;11.350;2023-03-07T09:26:56;3.50;90.30
47779;DHT22;33538;48.432;11.350;2023-03-07T09:29:22;3.50;90.30
47779;DHT22;33538;48.432;11.350;2023-03-07T09:31:49;3.50;90.30
47779;DHT22;33538;48.432;11.350;2023-03-07T09:34:17;3.50;90.30
47779;DHT22;33538;48.432;11.350;2023-03-07T09:36:44;3.50;90.40
47779;DHT22;33538;48.432;11.350;2023-03-07T09:39:11;3.60;90.40
47779;DHT22;33538;48.432;11.350;2023-03-07T09:41:51;3.60;90.40
47779;DHT22;33538;48.432;11.350;2023-03-07T09:44:27;3.60;90.40
47779;DHT22;33538;48.432;11.350;2023-03-07T09:47:06;3.70;90.40
47779;DHT22;33538;48.432;11.350;2023-03-07T09:49:43;3.70;90.40
47779;DHT22;33538;48.432;11.350;2023-03-07T09:52:13;3.80;90.80
47779;DHT22;33538;48.432;11.350;2023-03-07T09:54:43;3.80;90.60
47779;DHT22;33538;48.432;11.350;2023-03-07T09:57:13;3.80;90.60
47779;DHT22;33538;48.432;11.350;2023-03-07T09:59:45;3.90;90.60
47779;DHT22;33538;48.432;11.350;2023-03-07T10:02:16;3.90;90.30
47779;DHT22;33538;48.432;11.350;2023-03-07T10:04:50;3.90;90.30
47779;DHT22;33538;48.432;11.350;2023-03-07T10:07:18;3.90;90.10
47779;DHT22;33538;48.432;11.350;2023-03-07T10:09:53;3.90;90.00
47779;DHT22;33538;48.432;11.350;2023-03-07T10:12:45;3.90;90.00
47779;DHT22;33538;48.432;11.350;2023-03-07T10:15:19;3.90;90.10
47779;DHT22;33538;48.432;11.350;2023-03-07T10:18:04;4.00;90.00
47779;DHT22;33538;48.432;11.350;2023-03-07T10:20:44;4.00;90.00
47779;DHT22;33538;48.432;11.350;2023-03-07T10:23:26;4.00;89.90
47779;DHT22;33538;48.432;11.350;2023-03-07T10:25:59;4.10;89.80
47779;DHT22;33538;48.432;11.350;2023-03-07T10:28:30;4.10;89.50
47779;DHT22;33538;48.432;11.350;2023-03-07T10:30:59;4.10;89.30
47779;DHT22;33538;48.432;11.350;2023-03-07T10:33:28;4.10;89.10
47779;DHT22;33538;48.432;11.350;2023-03-07T10:36:01;4.10;89.30
47779;DHT22;33538;48.432;11.350;2023-03-07T10:38:32;4.10;89.20
47779;DHT22;33538;48.432;11.350;2023-03-07T10:41:03;4.10;89.10
47779;DHT22;33538;48.432;11.350;2023-03-07T10:43:33;4.10;89.10
47779;DHT22;33538;48.432;11.350;2023-03-07T10:46:10;4.10;89.30
47779;DHT22;33538;48.432;11.350;2023-03-07T10:48:52;4.10;88.90
47779;DHT22;33538;48.432;11.350;2023-03-07T10:51:35;4.20;89.10
47779;DHT22;33538;48.432;11.350;2023-03-07T10:54:04;4.20;88.90
47779;DHT22;33538;48.432;11.350;2023-03-07T10:56:36;4.20;88.90
47779;DHT22;33538;48.432;11.350;2023-03-07T10:59:04;4.20;89.00
47779;DHT22;33538;48.432;11.350;2023-03-07T11:01:32;4.30;89.10
47779;DHT22;33538;48.432;11.350;2023-03-07T11:04:00;4.30;88.60
47779;DHT22;33538;48.432;11.350;2023-03-07T11:06:35;4.40;88.40
47779;DHT22;33538;48.432;11.350;2023-03-07T11:09:15;4.40;88.10
47779;DHT22;33538;48.432;11.350;2023-03-07T11:11:47;4.40;88.00
47779;DHT22;33538;48.432;11.350;2023-03-07T11:14:14;4.50;87.40
47779;DHT22;33538;48.432;11.350;2023-03-07T11:16:48;4.50;87.40
47779;DHT22;33538;48.432;11.350;2023-03-07T11:19:31;4.50;87.50
47779;DHT22;33538;48.432;11.350;2023-03-07T11:22:01;4.50;87.40
47779;DHT22;33538;48.432;11.350;2023-03-07T11:24:29;4.50;87.40
47779;DHT22;33538;48.432;11.350;2023-03-07T11:26:58;4.50;87.70
47779;DHT22;33538;48.432;11.350;2023-03-07T11:29:25;4.50;87.90
47779;DHT22;33538;48.432;11.350;2023-03-07T11:31:58;4.60;87.80
47779;DHT22;33538;48.432;11.350;2023-03-07T11:34:36;4.70;87.30
47779;DHT22;33538;48.432;11.350;2023-03-07T11:37:13;4.70;87.30
47779;DHT22;33538;48.432;11.350;2023-03-07T11:39:45;4.70;87.50
47779;DHT22;33538;48.432;11.350;2023-03-07T11:42:16;4.70;87.30
47779;DHT22;33538;48.432;11.350;2023-03-07T11:44:49;4.60;87.40
47779;DHT22;33538;48.432;11.350;2023-03-07T11:47:27;4.70;87.70
47779;DHT22;33538;48.432;11.350;2023-03-07T11:50:04;4.70;87.80
47779;DHT22;33538;48.432;11.350;2023-03-07T11:55:32;4.70;87.90
47779;DHT22;33538;48.432;11.350;2023-03-07T11:58:05;4.70;87.90
47779;DHT22;33538;48.432;11.350;2023-03-07T12:00:46;4.70;87.90
47779;DHT22;33538;48.432;11.350;2023-03-07T12:03:49;4.70;87.80
47779;DHT22;33538;48.432;11.350;2023-03-07T12:06:25;4.70;87.90
47779;DHT22;33538;48.432;11.350;2023-03-07T12:09:06;4.70;88.10
47779;DHT22;33538;48.432;11.350;2023-03-07T12:11:49;4.70;88.00
47779;DHT22;33538;48.432;11.350;2023-03-07T12:14:25;4.70;88.20
47779;DHT22;33538;48.432;11.350;2023-03-07T12:17:06;4.70;88.60
47779;DHT22;33538;48.432;11.350;2023-03-07T12:19:53;4.80;88.50
47779;DHT22;33538;48.432;11.350;2023-03-07T12:22:26;4.80;88.60
47779;DHT22;33538;48.432;11.350;2023-03-07T12:25:14;4.80;88.50
47779;DHT22;33538;48.432;11.350;2023-03-07T12:27:45;4.80;88.40
47779;DHT22;33538;48.432;11.350;2023-03-07T12:30:16;4.80;88.50
47779;DHT22;33538;48.432;11.350;2023-03-07T12:32:44;4.80;88.60
47779;DHT22;33538;48.432;11.350;2023-03-07T12:35:20;4.90;88.90
47779;DHT22;33538;48.432;11.350;2023-03-07T12:37:51;4.90;88.60
47779;DHT22;33538;48.432;11.350;2023-03-07T12:40:24;4.90;88.40
47779;DHT22;33538;48.432;11.350;2023-03-07T12:42:56;5.00;88.10
47779;DHT22;33538;48.432;11.350;2023-03-07T12:45:25;5.00;88.00
47779;DHT22;33538;48.432;11.350;2023-03-07T12:48:01;5.00;88.10
47779;DHT22;33538;48.432;11.350;2023-03-07T12:50:34;5.00;88.20
47779;DHT22;33538;48.432;11.350;2023-03-07T12:53:08;5.00;88.10
47779;DHT22;33538;48.432;11.350;2023-03-07T12:55:39;5.00;88.20
47779;DHT22;33538;48.432;11.350;2023-03-07T12:58:12;5.00;88.00
47779;DHT22;33538;48.432;11.350;2023-03-07T13:00:44;5.00;88.00
47779;DHT22;33538;48.432;11.350;2023-03-07T13:03:20;5.10;88.20
47779;DHT22;33538;48.432;11.350;2023-03-07T13:05:49;5.10;88.20
47779;DHT22;33538;48.432;11.350;2023-03-07T13:08:21;5.10;88.40
47779;DHT22;33538;48.432;11.350;2023-03-07T13:10:50;5.10;88.30
47779;DHT22;33538;48.432;11.350;2023-03-07T13:13:54;5.10;88.40
47779;DHT22;33538;48.432;11.350;2023-03-07T13:16:35;5.10;89.20
47779;DHT22;33538;48.432;11.350;2023-03-07T13:28:38;5.20;88.70
47779;DHT22;33538;48.432;11.350;2023-03-07T13:31:38;5.20;88.80
47779;DHT22;33538;48.432;11.350;2023-03-07T13:37:47;5.20;88.90
47779;DHT22;33538;48.432;11.350;2023-03-07T13:43:55;5.30;89.10
47779;DHT22;33538;48.432;11.350;2023-03-07T13:46:50;5.30;89.20
47779;DHT22;33538;48.432;11.350;2023-03-07T13:49:40;5.30;89.20
47779;DHT22;33538;48.432;11.350;2023-03-07T13:52:27;5.30;89.30
47779;DHT22;33538;48.432;11.350;2023-03-07T13:54:57;5.30;89.30
47779;DHT22;33538;48.432;11.350;2023-03-07T13:57:30;5.30;89.40
47779;DHT22;33538;48.432;11.350;2023-03-07T14:00:00;5.30;89.40
47779;DHT22;33538;48.432;11.350;2023-03-07T14:02:28;5.30;89.50
47779;DHT22;33538;48.432;11.350;2023-03-07T14:04:55;5.30;89.60
47779;DHT22;33538;48.432;11.350;2023-03-07T14:07:23;5.40;89.70
47779;DHT22;33538;48.432;11.350;2023-03-07T14:09:54;5.40;89.90
47779;DHT22;33538;48.432;11.350;2023-03-07T14:12:31;5.40;89.90
47779;DHT22;33538;48.432;11.350;2023-03-07T14:15:16;5.40;89.90
47779;DHT22;33538;48.432;11.350;2023-03-07T14:17:58;5.40;90.00
47779;DHT22;33538;48.432;11.350;2023-03-07T14:20:37;5.40;90.00
47779;DHT22;33538;48.432;11.350;2023-03-07T14:23:16;5.40;90.00
47779;DHT22;33538;48.432;11.350;2023-03-07T14:25:48;5.40;90.00
47779;DHT22;33538;48.432;11.350;2023-03-07T14:28:19;5.50;90.10
47779;DHT22;33538;48.432;11.350;2023-03-07T14:30:54;5.50;90.10
47779;DHT22;33538;48.432;11.350;2023-03-07T14:33:28;5.50;90.10
47779;DHT22;33538;48.432;11.350;2023-03-07T14:35:55;5.50;90.20
47779;DHT22;33538;48.432;11.350;2023-03-07T14:38:24;5.50;90.20
47779;DHT22;33538;48.432;11.350;2023-03-07T14:41:14;5.50;90.30
47779;DHT22;33538;48.432;11.350;2023-03-07T14:43:51;5.50;90.30
47779;DHT22;33538;48.432;11.350;2023-03-07T14:46:27;5.50;90.30
47779;DHT22;33538;48.432;11.350;2023-03-07T14:49:09;5.50;90.30
47779;DHT22;33538;48.432;11.350;2023-03-07T14:51:39;5.60;90.30
47779;DHT22;33538;48.432;11.350;2023-03-07T14:54:13;5.50;90.30
47779;DHT22;33538;48.432;11.350;2023-03-07T14:56:41;5.50;90.30
47779;DHT22;33538;48.432;11.350;2023-03-07T14:59:11;5.60;90.50
47779;DHT22;33538;48.432;11.350;2023-03-07T15:01:55;5.60;90.40
47779;DHT22;33538;48.432;11.350;2023-03-07T15:04:24;5.60;90.30
47779;DHT22;33538;48.432;11.350;2023-03-07T15:06:55;5.60;90.40
47779;DHT22;33538;48.432;11.350;2023-03-07T15:09:23;5.60;90.50
47779;DHT22;33538;48.432;11.350;2023-03-07T15:11:53;5.60;90.50
47779;DHT22;33538;48.432;11.350;2023-03-07T15:14:31;5.60;90.50
47779;DHT22;33538;48.432;11.350;2023-03-07T15:17:04;5.60;90.50
47779;DHT22;33538;48.432;11.350;2023-03-07T15:19:36;5.60;90.50
47779;DHT22;33538;48.432;11.350;2023-03-07T15:22:12;5.60;90.50
47779;DHT22;33538;48.432;11.350;2023-03-07T15:24:43;5.60;90.50
47779;DHT22;33538;48.432;11.350;2023-03-07T15:27:13;5.60;90.40
47779;DHT22;33538;48.432;11.350;2023-03-07T15:29:44;5.60;90.40
47779;DHT22;33538;48.432;11.350;2023-03-07T15:32:29;5.60;90.50
47779;DHT22;33538;48.432;11.350;2023-03-07T15:34:59;5.60;90.40
47779;DHT22;33538;48.432;11.350;2023-03-07T15:37:27;5.60;90.40
47779;DHT22;33538;48.432;11.350;2023-03-07T15:39:55;5.60;90.40
47779;DHT22;33538;48.432;11.350;2023-03-07T15:42:22;5.60;90.20
47779;DHT22;33538;48.432;11.350;2023-03-07T15:44:53;5.60;90.20
47779;DHT22;33538;48.432;11.350;2023-03-07T15:47:21;5.60;90.10
47779;DHT22;33538;48.432;11.350;2023-03-07T15:49:52;5.70;90.30
47779;DHT22;33538;48.432;11.350;2023-03-07T15:52:24;5.60;90.30
47779;DHT22;33538;48.432;11.350;2023-03-07T15:54:53;5.70;90.30
47779;DHT22;33538;48.432;11.350;2023-03-07T15:57:24;5.70;90.40
47779;DHT22;33538;48.432;11.350;2023-03-07T15:59:54;5.60;90.30
47779;DHT22;33538;48.432;11.350;2023-03-07T16:05:30;5.70;89.90
47779;DHT22;33538;48.432;11.350;2023-03-07T16:08:01;5.70;89.70
47779;DHT22;33538;48.432;11.350;2023-03-07T16:10:29;5.60;89.40
47779;DHT22;33538;48.432;11.350;2023-03-07T16:12:58;5.60;90.00